createdAt,value
2019-02-25T00:00:37.501Z,61.14
2019-02-25T00:03:09.426Z,61.66
2019-02-25T00:05:39.766Z,61.21
2019-02-25T00:08:10.032Z,61.51
2019-02-25T00:10:40.291Z,62.28
2019-02-25T00:13:10.604Z,62.60
2019-02-25T00:15:40.847Z,62.70
2019-02-25T00:18:11.382Z,63.83
2019-02-25T00:20:41.725Z,64.49
2019-02-25T00:23:13.067Z,64.86
2019-02-25T00:25:43.357Z,64.46
2019-02-25T00:28:13.618Z,64.42
2019-02-25T00:30:44.150Z,64.81
2019-02-25T00:33:14.490Z,64.56
2019-02-25T00:35:45.014Z,64.16
2019-02-25T00:38:15.290Z,64.09
2019-02-25T00:40:45.558Z,64.75
2019-02-25T00:43:15.854Z,65.12
2019-02-25T00:45:46.114Z,65.82
2019-02-25T00:48:16.389Z,66.55
2019-02-25T00:50:46.670Z,67.27
2019-02-25T00:53:16.921Z,67.88
2019-02-25T00:55:47.248Z,68.71
2019-02-25T00:58:17.523Z,69.16
2019-02-25T01:00:47.786Z,68.84
2019-02-25T01:03:18.052Z,68.72
2019-02-25T01:05:48.316Z,68.32
2019-02-25T01:08:18.610Z,67.47
2019-02-25T01:10:48.892Z,66.85
2019-02-25T01:13:19.239Z,66.71
2019-02-25T01:15:49.549Z,66.23
2019-02-25T01:18:19.814Z,66.29
2019-02-25T01:20:50.079Z,65.89
2019-02-25T01:23:20.337Z,66.29
2019-02-25T01:25:50.860Z,66.72
2019-02-25T01:28:22.213Z,66.94
2019-02-25T01:30:52.478Z,66.42
2019-02-25T01:33:22.766Z,65.55
2019-02-25T01:35:53.023Z,65.68
2019-02-25T01:38:24.253Z,65.60
2019-02-25T01:40:54.535Z,65.63
2019-02-25T01:43:25.889Z,65.43
2019-02-25T01:45:56.219Z,65.54
2019-02-25T01:48:26.502Z,64.36
2019-02-25T01:50:56.736Z,64.63
2019-02-25T01:53:27.876Z,65.06
2019-02-25T01:55:58.170Z,65.20
2019-02-25T01:58:28.456Z,65.66
2019-02-25T02:00:58.727Z,64.98
2019-02-25T02:03:29.012Z,64.77
2019-02-25T02:05:59.290Z,64.33
2019-02-25T02:08:29.541Z,64.00
2019-02-25T02:10:59.800Z,63.97
2019-02-25T02:13:30.113Z,63.61
2019-02-25T02:16:01.893Z,63.51
2019-02-25T02:18:32.138Z,64.00
2019-02-25T02:21:02.399Z,64.74
2019-02-25T02:23:34.765Z,65.62
2019-02-25T02:26:05.031Z,66.20
2019-02-25T02:28:35.298Z,65.99
2019-02-25T02:31:05.749Z,65.98
2019-02-25T02:33:36.023Z,66.38
2019-02-25T02:36:06.274Z,66.20
2019-02-25T02:38:36.535Z,66.72
2019-02-25T02:41:06.808Z,66.52
2019-02-25T02:43:37.955Z,65.87
2019-02-25T02:46:14.378Z,65.47
2019-02-25T02:48:50.906Z,64.10
2019-02-25T02:51:21.184Z,64.32
2019-02-25T02:56:27.514Z,63.93
2019-02-25T02:58:57.771Z,64.21
2019-02-25T03:01:28.047Z,64.47
2019-02-25T03:03:58.378Z,64.12
2019-02-25T03:06:28.655Z,64.10
2019-02-25T03:08:59.180Z,64.20
2019-02-25T03:11:29.441Z,64.34
2019-02-25T03:13:59.711Z,64.83
2019-02-25T03:16:30.253Z,65.37
2019-02-25T03:19:00.530Z,65.27
2019-02-25T03:21:30.820Z,65.55
2019-02-25T03:24:01.109Z,65.54
2019-02-25T03:26:31.385Z,65.51
2019-02-25T03:29:03.740Z,65.60
2019-02-25T03:31:34.018Z,66.26
2019-02-25T03:34:04.339Z,66.33
2019-02-25T03:36:34.585Z,66.37
2019-02-25T03:39:06.999Z,66.42
2019-02-25T03:41:37.271Z,65.90
2019-02-25T03:44:08.462Z,66.08
2019-02-25T03:46:38.720Z,66.22
2019-02-25T03:49:09.014Z,65.86
2019-02-25T03:51:39.268Z,66.07
2019-02-25T03:54:09.548Z,67.19
2019-02-25T03:56:39.803Z,67.25
2019-02-25T03:59:10.070Z,67.17
2019-02-25T04:01:40.341Z,67.26
2019-02-25T04:04:10.626Z,67.50
2019-02-25T04:06:40.881Z,68.04
2019-02-25T04:09:11.157Z,68.17
2019-02-25T04:11:41.406Z,68.43
2019-02-25T04:14:11.674Z,68.37
2019-02-25T04:16:42.114Z,68.69
2019-02-25T04:19:12.417Z,68.28
2019-02-25T04:21:42.645Z,68.23
2019-02-25T04:24:12.907Z,68.15
2019-02-25T04:26:43.169Z,68.24
2019-02-25T04:29:13.453Z,68.24
2019-02-25T04:31:43.718Z,68.04
2019-02-25T04:34:14.018Z,68.04
2019-02-25T04:36:44.266Z,67.99
2019-02-25T04:39:14.539Z,68.27
2019-02-25T04:41:44.794Z,67.97
2019-02-25T04:44:15.890Z,68.05
2019-02-25T04:46:46.141Z,67.98
2019-02-25T04:49:16.414Z,67.85
2019-02-25T04:51:46.671Z,67.95
2019-02-25T04:54:16.945Z,68.41
2019-02-25T04:56:47.203Z,68.76
2019-02-25T04:59:17.484Z,68.71
2019-02-25T05:01:47.758Z,68.38
2019-02-25T05:04:18.025Z,68.24
2019-02-25T05:06:48.285Z,68.42
2019-02-25T05:09:18.580Z,68.24
2019-02-25T05:11:48.841Z,68.29
2019-02-25T05:14:19.127Z,68.60
2019-02-25T05:16:49.388Z,68.94
2019-02-25T05:19:19.664Z,69.56
2019-02-25T05:21:49.929Z,69.36
2019-02-25T05:24:20.202Z,69.43
2019-02-25T05:26:50.478Z,69.61
2019-02-25T05:29:20.755Z,70.06
2019-02-25T05:31:51.012Z,70.54
2019-02-25T05:34:21.304Z,71.28
2019-02-25T05:36:51.561Z,71.77
2019-02-25T05:39:21.848Z,71.79
2019-02-25T05:41:52.143Z,71.67
2019-02-25T05:44:23.258Z,71.66
2019-02-25T05:46:53.516Z,71.81
2019-02-25T05:49:24.058Z,72.40
2019-02-25T05:51:54.320Z,71.85
2019-02-25T05:54:24.620Z,71.32
2019-02-25T05:56:54.911Z,71.25
2019-02-25T05:59:25.207Z,71.48
2019-02-25T06:01:55.460Z,71.27
2019-02-25T06:04:25.730Z,71.35
2019-02-25T06:06:55.987Z,71.03
2019-02-25T06:09:26.269Z,70.81
2019-02-25T06:11:56.531Z,70.72
2019-02-25T06:14:26.901Z,70.42
2019-02-25T06:16:57.157Z,70.60
2019-02-25T06:19:27.453Z,70.29
2019-02-25T06:21:57.698Z,70.53
2019-02-25T06:24:29.041Z,70.49
2019-02-25T06:26:59.331Z,70.23
2019-02-25T06:29:29.609Z,69.97
2019-02-25T06:31:59.862Z,69.53
2019-02-25T06:34:30.151Z,69.52
2019-02-25T06:37:00.512Z,70.24
2019-02-25T06:39:30.797Z,70.40
2019-02-25T06:42:01.078Z,70.45
2019-02-25T06:44:32.149Z,71.40
2019-02-25T06:47:02.431Z,70.78
2019-02-25T06:49:32.700Z,70.70
2019-02-25T06:52:02.967Z,69.81
2019-02-25T06:54:33.220Z,69.21
2019-02-25T06:57:03.514Z,68.52
2019-02-25T06:59:33.872Z,68.17
2019-02-25T07:02:04.171Z,68.22
2019-02-25T07:04:37.704Z,68.34
2019-02-25T07:07:18.482Z,68.49
2019-02-25T07:09:51.121Z,68.40
2019-02-25T07:12:25.960Z,68.36
2019-02-25T07:15:00.808Z,67.53
2019-02-25T07:17:35.650Z,66.30
2019-02-25T07:20:17.031Z,63.93
2019-02-25T07:22:57.922Z,62.81
2019-02-25T07:25:29.801Z,60.44
2019-02-25T07:28:07.409Z,59.12
2019-02-25T07:30:55.720Z,57.27
2019-02-25T07:33:33.320Z,56.65
2019-02-25T07:36:07.905Z,55.96
2019-02-25T07:38:42.513Z,56.31
2019-02-25T07:41:14.427Z,56.09
2019-02-25T07:43:55.357Z,55.91
2019-02-25T07:46:37.213Z,54.87
2019-02-25T07:49:23.929Z,53.84
2019-02-25T07:52:02.495Z,54.33
2019-02-25T07:54:34.411Z,54.08
2019-02-25T07:57:06.316Z,53.65
2019-02-25T07:59:39.869Z,52.59
2019-02-25T08:02:14.591Z,52.82
2019-02-25T08:04:46.514Z,52.92
2019-02-25T08:07:24.096Z,52.47
2019-02-25T08:09:59.253Z,52.02
2019-02-25T08:12:49.512Z,51.72
2019-02-25T08:15:30.127Z,50.75
2019-02-25T08:18:04.497Z,50.41
2019-02-25T08:20:36.385Z,49.87
2019-02-25T08:23:14.287Z,50.55
2019-02-25T08:25:54.900Z,49.87
2019-02-25T08:28:29.508Z,50.11
2019-02-25T08:31:01.401Z,49.40
2019-02-25T08:33:49.650Z,49.64
2019-02-25T08:37:01.967Z,48.91
2019-02-25T08:39:42.042Z,48.45
2019-02-25T08:42:22.981Z,46.31
2019-02-25T08:45:11.248Z,46.32
2019-02-25T08:47:49.890Z,44.69
2019-02-25T08:50:21.217Z,45.39
2019-02-25T08:52:51.474Z,44.91
2019-02-25T08:55:21.730Z,46.83
2019-02-25T08:57:52.003Z,44.95
2019-02-25T09:00:22.273Z,44.81
2019-02-25T09:02:52.619Z,44.44
2019-02-25T09:05:22.866Z,44.52
2019-02-25T09:07:53.143Z,44.30
2019-02-25T09:10:23.412Z,43.45
2019-02-25T09:12:53.670Z,43.95
2019-02-25T09:15:23.952Z,44.93
2019-02-25T09:17:53.279Z,43.75
2019-02-25T09:20:23.581Z,43.19
2019-02-25T09:22:53.840Z,43.11
2019-02-25T09:25:24.105Z,42.70
2019-02-25T09:27:54.390Z,42.14
2019-02-25T09:30:24.668Z,42.45
2019-02-25T09:32:54.926Z,41.93
2019-02-25T09:35:25.218Z,41.41
2019-02-25T09:37:55.504Z,41.82
2019-02-25T09:40:25.798Z,41.26
2019-02-25T09:42:56.076Z,40.98
2019-02-25T09:45:26.348Z,40.80
2019-02-25T09:47:56.609Z,40.13
2019-02-25T09:50:26.893Z,40.18
2019-02-25T09:52:57.151Z,40.05
2019-02-25T09:55:27.447Z,41.44
2019-02-25T09:57:57.705Z,41.19
2019-02-25T10:00:27.990Z,41.10
2019-02-25T10:02:58.263Z,40.88
2019-02-25T10:05:28.551Z,39.03
2019-02-25T10:07:58.827Z,38.21
2019-02-25T10:10:29.129Z,37.71
2019-02-25T10:12:59.373Z,38.26
2019-02-25T10:15:29.726Z,37.30
2019-02-25T10:18:00.010Z,38.91
2019-02-25T10:20:30.329Z,38.63
2019-02-25T10:23:00.589Z,38.02
2019-02-25T10:25:30.865Z,38.44
2019-02-25T10:28:01.149Z,37.40
2019-02-25T10:30:31.472Z,37.35
2019-02-25T10:33:01.769Z,38.82
2019-02-25T10:35:33.105Z,38.42
2019-02-25T10:38:03.363Z,40.75
2019-02-25T10:40:33.635Z,40.08
2019-02-25T10:43:03.922Z,40.01
2019-02-25T10:45:35.247Z,40.52
2019-02-25T10:48:07.097Z,38.34
2019-02-25T10:50:38.655Z,38.58
2019-02-25T10:53:10.975Z,39.98
2019-02-25T10:55:48.823Z,38.26
2019-02-25T10:58:18.781Z,36.86
2019-02-25T11:00:49.061Z,37.81
2019-02-25T11:03:19.940Z,37.48
2019-02-25T11:05:51.770Z,37.81
2019-02-25T11:08:24.401Z,36.06
2019-02-25T11:11:02.489Z,36.72
2019-02-25T11:13:34.611Z,36.48
2019-02-25T11:16:04.847Z,37.46
2019-02-25T11:18:35.148Z,40.44
2019-02-25T11:21:06.175Z,40.20
2019-02-25T11:23:37.408Z,40.97
2019-02-25T11:26:09.285Z,41.22
2019-02-25T11:28:41.247Z,40.79
2019-02-25T11:31:12.191Z,39.31
2019-02-25T11:33:42.461Z,39.68
2019-02-25T11:36:14.904Z,39.89
2019-02-25T11:38:44.708Z,39.46
2019-02-25T11:41:14.996Z,37.25
2019-02-25T11:43:46.408Z,37.85
2019-02-25T11:46:17.231Z,36.84
2019-02-25T11:48:47.496Z,36.00
2019-02-25T11:51:17.788Z,36.16
2019-02-25T11:53:48.112Z,35.38
2019-02-25T11:56:18.400Z,36.35
2019-02-25T11:58:48.669Z,35.54
2019-02-25T12:01:18.943Z,36.38
2019-02-25T12:03:49.227Z,34.95
2019-02-25T12:06:19.520Z,35.95
2019-02-25T12:08:49.789Z,37.12
2019-02-25T12:11:20.057Z,36.23
2019-02-25T12:13:50.323Z,36.36
2019-02-25T12:16:21.780Z,34.04
2019-02-25T12:18:52.162Z,33.28
2019-02-25T12:21:22.437Z,32.88
2019-02-25T12:23:53.712Z,32.88
2019-02-25T12:26:23.980Z,34.49
2019-02-25T12:28:54.239Z,34.14
2019-02-25T12:31:24.508Z,34.84
2019-02-25T12:33:54.774Z,36.88
2019-02-25T12:36:25.138Z,34.55
2019-02-25T12:38:55.398Z,34.66
2019-02-25T12:41:27.249Z,33.54
2019-02-25T12:43:57.714Z,34.42
2019-02-25T12:46:27.998Z,35.47
2019-02-25T12:49:00.527Z,34.48
2019-02-25T12:51:30.808Z,34.78
2019-02-25T12:54:01.069Z,33.58
2019-02-25T12:56:31.353Z,32.47
2019-02-25T12:59:01.603Z,32.13
2019-02-25T13:01:31.917Z,33.00
2019-02-25T13:04:02.178Z,32.18
2019-02-25T13:06:32.457Z,30.82
2019-02-25T13:09:02.732Z,30.25
2019-02-25T13:11:34.663Z,30.70
2019-02-25T13:14:04.913Z,30.41
2019-02-25T13:16:35.189Z,31.24
2019-02-25T13:19:05.445Z,32.76
2019-02-25T13:21:35.706Z,33.49
2019-02-25T13:24:07.477Z,31.91
2019-02-25T13:26:39.449Z,31.96
2019-02-25T13:29:09.803Z,32.63
2019-02-25T13:31:40.086Z,31.34
2019-02-25T13:34:10.340Z,32.95
2019-02-25T13:36:40.615Z,30.18
2019-02-25T13:39:10.887Z,29.77
2019-02-25T13:41:41.439Z,31.50
2019-02-25T13:44:11.694Z,31.64
2019-02-25T13:46:43.017Z,32.16
2019-02-25T13:49:14.999Z,33.33
2019-02-25T13:51:45.412Z,34.58
2019-02-25T13:54:17.876Z,35.38
2019-02-25T13:56:49.206Z,35.92
2019-02-25T13:59:19.529Z,35.66
2019-02-25T14:01:49.818Z,35.28
2019-02-25T14:34:09.477Z,31.72
2019-02-25T14:36:39.740Z,31.83
2019-02-25T14:39:18.535Z,32.68
2019-02-25T14:46:04.827Z,34.65
2019-02-25T14:48:36.433Z,32.24
2019-02-25T14:51:08.746Z,31.89
2019-02-25T14:53:39.169Z,30.94
2019-02-25T14:56:10.146Z,30.35
2019-02-25T14:58:41.140Z,29.45
2019-02-25T15:01:13.979Z,28.82
2019-02-25T15:03:44.401Z,29.39
2019-02-25T15:06:14.639Z,28.43
2019-02-25T15:08:44.955Z,28.85
2019-02-25T15:11:15.304Z,28.71
2019-02-25T15:13:45.808Z,29.24
2019-02-25T15:16:16.099Z,30.12
2019-02-25T15:18:47.754Z,30.54
2019-02-25T15:21:18.033Z,30.69
2019-02-25T15:23:48.350Z,31.65
2019-02-25T15:26:19.868Z,33.13
2019-02-25T15:28:53.654Z,32.59
2019-02-25T15:31:23.387Z,32.95
2019-02-25T15:33:53.661Z,33.64
2019-02-25T15:36:24.749Z,33.87
2019-02-25T15:38:56.224Z,35.44
2019-02-25T15:41:26.503Z,35.44
2019-02-25T15:44:40.371Z,35.18
2019-02-25T15:47:12.862Z,36.07
2019-02-25T15:49:43.355Z,36.19
2019-02-25T15:52:16.552Z,36.93
2019-02-25T15:54:45.731Z,36.96
2019-02-25T15:57:15.971Z,37.28
2019-02-25T15:59:46.306Z,37.51
2019-02-25T16:02:16.627Z,38.17
2019-02-25T16:04:48.881Z,38.68
2019-02-25T16:07:19.295Z,39.10
2019-02-25T16:09:49.536Z,39.09
2019-02-25T16:12:23.193Z,39.56
2019-02-25T16:14:53.118Z,39.64
2019-02-25T16:17:24.347Z,40.66
2019-02-25T16:19:55.065Z,41.65
2019-02-25T16:22:26.234Z,41.11
2019-02-25T16:24:59.046Z,41.32
2019-02-25T16:27:30.644Z,42.13
2019-02-25T16:30:02.917Z,42.36
2019-02-25T16:32:34.041Z,43.05
2019-02-25T16:35:07.252Z,43.21
2019-02-25T16:37:40.038Z,43.91
2019-02-25T16:40:18.250Z,44.37
2019-02-25T16:46:16.201Z,44.44
2019-02-25T16:48:48.379Z,45.26
2019-02-25T16:51:19.063Z,44.79
2019-02-25T16:53:51.849Z,45.03
2019-02-25T16:56:22.147Z,45.28
2019-02-25T16:58:54.329Z,45.98
2019-02-25T17:01:26.192Z,45.98
2019-02-25T17:03:57.154Z,45.70
2019-02-25T17:06:30.388Z,46.37
2019-02-25T17:09:02.208Z,46.55
2019-02-25T17:11:35.305Z,46.21
2019-02-25T17:14:06.125Z,45.83
2019-02-25T17:16:37.405Z,46.44
2019-02-25T17:19:08.864Z,46.12
2019-02-25T17:21:42.962Z,46.83
2019-02-25T17:24:12.669Z,46.75
2019-02-25T17:26:43.306Z,47.10
2019-02-25T17:29:13.733Z,47.71
2019-02-25T17:31:44.027Z,48.15
2019-02-25T17:34:16.484Z,48.72
2019-02-25T17:36:50.112Z,48.83
2019-02-25T17:39:20.178Z,49.07
2019-02-25T17:41:50.429Z,49.42
2019-02-25T17:44:23.378Z,48.83
2019-02-25T17:46:52.722Z,48.91
2019-02-25T17:49:26.126Z,48.77
2019-02-25T17:51:59.798Z,48.65
2019-02-25T17:54:33.350Z,49.22
2019-02-25T17:57:04.955Z,49.64
2019-02-25T17:59:35.602Z,49.81
2019-02-25T18:02:06.672Z,50.41
2019-02-25T18:04:37.901Z,50.62
2019-02-25T18:07:08.196Z,50.28
2019-02-25T18:09:40.140Z,50.68
2019-02-25T18:12:10.804Z,50.78
2019-02-25T18:14:43.078Z,51.26
2019-02-25T18:17:15.360Z,51.17
2019-02-25T18:19:47.667Z,51.81
2019-02-25T18:22:17.970Z,51.92
2019-02-25T18:24:48.509Z,52.09
2019-02-25T18:27:18.844Z,52.43
2019-02-25T18:29:50.382Z,52.90
2019-02-25T18:32:21.076Z,53.14
2019-02-25T18:34:52.132Z,53.65
2019-02-25T18:37:24.878Z,54.00
2019-02-25T18:39:56.524Z,54.88
2019-02-25T18:42:27.284Z,55.75
2019-02-25T18:44:58.711Z,56.40
2019-02-25T18:47:28.953Z,57.08
2019-02-25T18:50:00.951Z,57.48
2019-02-25T18:52:38.523Z,58.06
2019-02-25T18:55:12.010Z,58.41
2019-02-25T18:57:43.830Z,58.97
2019-02-25T19:00:24.097Z,59.06
2019-02-25T19:02:56.064Z,59.24
2019-02-25T19:05:27.176Z,59.72
2019-02-25T19:07:58.552Z,60.05
2019-02-25T19:10:28.951Z,59.81
2019-02-25T19:13:01.007Z,60.14
2019-02-25T19:15:31.224Z,59.83
2019-02-25T19:18:01.451Z,60.47
2019-02-25T19:20:32.811Z,60.88
2019-02-25T19:23:04.859Z,61.21
2019-02-25T19:25:36.143Z,61.42
2019-02-25T19:28:06.703Z,61.82
2019-02-25T19:30:37.042Z,62.12
2019-02-25T19:33:11.397Z,62.16
2019-02-25T19:35:40.981Z,62.30
2019-02-25T19:38:13.433Z,62.70
2019-02-25T19:40:45.891Z,62.89
2019-02-25T19:43:15.682Z,63.33
2019-02-25T19:45:46.269Z,63.55
2019-02-25T19:48:19.868Z,64.06
2019-02-25T19:50:53.894Z,64.11
2019-02-25T19:53:23.736Z,64.26
2019-02-25T19:55:54.611Z,64.73
2019-02-25T19:58:26.783Z,64.80
2019-02-25T20:01:01.016Z,64.89
2019-02-25T20:03:31.005Z,65.20
2019-02-25T20:06:02.087Z,65.70
2019-02-25T20:08:33.457Z,65.83
2019-02-25T20:11:04.511Z,65.95
2019-02-25T20:13:34.849Z,66.06
2019-02-25T20:16:07.915Z,66.37
2019-02-25T20:18:40.266Z,66.64
2019-02-25T20:21:13.915Z,66.86
2019-02-25T20:23:49.189Z,66.86
2019-02-25T20:26:22.335Z,66.93
2019-02-25T20:28:52.937Z,66.82
2019-02-25T20:31:23.460Z,67.09
2019-02-25T20:33:55.283Z,67.30
2019-02-25T20:36:26.334Z,66.86
2019-02-25T20:46:40.863Z,67.22
2019-02-25T20:49:16.114Z,67.53
2019-02-25T20:51:45.513Z,67.40
2019-02-25T20:54:18.506Z,67.69
2019-02-25T20:56:51.195Z,68.10
2019-02-25T20:59:24.006Z,67.98
2019-02-25T21:01:56.787Z,68.05
2019-02-25T21:04:28.660Z,67.91
2019-02-25T21:07:02.256Z,68.10
2019-02-25T21:09:34.053Z,68.15
2019-02-25T21:12:05.730Z,68.25
2019-02-25T21:14:37.888Z,67.93
2019-02-25T21:17:08.035Z,68.06
2019-02-25T21:19:39.941Z,67.76
2019-02-25T21:22:10.359Z,67.91
2019-02-25T21:24:40.693Z,67.39
2019-02-25T21:27:11.003Z,67.36
2019-02-25T21:29:41.338Z,67.22
2019-02-25T21:32:15.303Z,66.92
2019-02-25T21:34:46.192Z,67.03
2019-02-25T21:37:15.599Z,66.91
2019-02-25T21:39:46.709Z,66.71
2019-02-25T21:42:19.197Z,66.67
2019-02-25T21:44:52.423Z,66.04
2019-02-25T21:47:24.301Z,65.60
2019-02-25T21:49:59.198Z,65.16
2019-02-25T21:52:32.808Z,64.92
2019-02-25T21:55:06.526Z,64.65
2019-02-25T21:57:37.697Z,64.01
2019-02-25T22:00:11.314Z,63.64
2019-02-25T22:02:44.035Z,63.39
2019-02-25T22:05:16.698Z,63.18
2019-02-25T22:07:49.914Z,63.09
2019-02-25T22:10:19.659Z,63.08
2019-02-25T22:12:49.978Z,63.19
2019-02-25T22:15:22.434Z,63.18
2019-02-25T22:17:53.454Z,62.46
2019-02-25T22:20:25.156Z,62.51
2019-02-25T22:22:57.458Z,62.81
2019-02-25T22:25:29.035Z,62.90
2019-02-25T22:28:01.126Z,63.13
2019-02-25T22:30:32.097Z,63.21
2019-02-25T22:33:04.463Z,63.26
2019-02-25T22:35:37.391Z,62.92
2019-02-25T22:38:06.397Z,62.92
2019-02-25T22:40:38.838Z,63.12
2019-02-25T22:43:10.049Z,63.35
2019-02-25T22:45:41.998Z,63.58
2019-02-25T22:48:14.069Z,63.84
2019-02-25T22:50:44.498Z,63.56
2019-02-25T22:53:14.784Z,63.73
2019-02-25T22:55:47.305Z,63.89
2019-02-25T22:58:18.736Z,64.22
2019-02-25T23:00:51.883Z,64.00
2019-02-25T23:03:24.904Z,63.86
2019-02-25T23:05:55.219Z,64.04
2019-02-25T23:08:26.101Z,64.09
2019-02-25T23:10:56.475Z,63.99
2019-02-25T23:13:29.323Z,63.97
2019-02-25T23:15:58.709Z,63.80
2019-02-25T23:18:28.959Z,64.05
2019-02-25T23:24:59.043Z,64.44
2019-02-25T23:27:30.120Z,64.48
2019-02-25T23:30:01.512Z,64.70
2019-02-25T23:32:31.942Z,64.71
2019-02-25T23:35:02.275Z,64.82
2019-02-25T23:37:32.653Z,65.14
2019-02-25T23:40:05.142Z,65.37
2019-02-25T23:42:37.307Z,65.64
2019-02-25T23:45:13.452Z,65.83
2019-02-25T23:47:44.778Z,66.08
2019-02-25T23:50:15.318Z,66.19
2019-02-25T23:52:47.197Z,66.37
2019-02-25T23:55:19.627Z,66.46
2019-02-25T23:57:49.545Z,66.54
